createdAt,value
2022-09-16T00:01:15.418Z,1.98
2022-09-16T00:06:19.858Z,2.20
2022-09-16T00:08:48.392Z,1.85
2022-09-16T00:11:16.897Z,2.58
2022-09-16T00:13:46.314Z,2.00
2022-09-16T00:16:18.009Z,2.08
2022-09-16T00:18:46.023Z,2.10
2022-09-16T00:21:13.864Z,1.90
2022-09-16T00:23:41.852Z,1.58
2022-09-16T00:26:09.836Z,2.17
2022-09-16T00:28:37.830Z,2.33
2022-09-16T00:31:07.523Z,2.15
2022-09-16T00:33:37.725Z,2.38
2022-09-16T00:36:07.431Z,1.77
2022-09-16T00:38:35.351Z,2.20
2022-09-16T00:41:03.234Z,1.80
2022-09-16T00:43:48.989Z,1.65
2022-09-16T00:46:20.577Z,1.50
2022-09-16T00:48:51.314Z,1.55
2022-09-16T00:51:20.987Z,1.40
2022-09-16T00:53:56.777Z,1.88
2022-09-16T00:56:27.100Z,1.52
2022-09-16T00:59:03.345Z,1.90
2022-09-16T01:01:33.415Z,1.52
2022-09-16T01:04:06.874Z,2.03
2022-09-16T01:06:40.459Z,2.10
2022-09-16T01:09:08.653Z,1.90
2022-09-16T01:11:36.680Z,2.13
2022-09-16T01:14:23.678Z,1.65
2022-09-16T01:17:00.998Z,1.77
2022-09-16T01:19:50.310Z,1.70
2022-09-16T01:22:36.708Z,2.20
2022-09-16T01:25:16.048Z,1.80
2022-09-16T01:28:22.728Z,1.50
2022-09-16T01:31:03.506Z,2.20
2022-09-16T01:33:41.478Z,1.95
2022-09-16T01:36:27.863Z,1.60
2022-09-16T01:39:09.481Z,1.88
2022-09-16T01:41:46.868Z,2.08
2022-09-16T01:44:22.299Z,2.30
2022-09-16T01:47:00.013Z,1.85
2022-09-16T01:49:40.279Z,2.17
2022-09-16T01:52:17.886Z,2.00
2022-09-16T01:54:51.724Z,1.80
2022-09-16T01:57:24.935Z,2.08
2022-09-16T01:59:58.322Z,2.40
2022-09-16T02:02:33.005Z,2.03
2022-09-16T02:05:05.966Z,2.00
2022-09-16T02:10:09.724Z,2.42
2022-09-16T02:12:42.091Z,2.60
2022-09-16T02:15:13.527Z,2.50
2022-09-16T02:17:47.448Z,2.03
2022-09-16T02:20:22.360Z,2.05
2022-09-16T02:22:54.932Z,2.63
2022-09-16T02:25:25.465Z,2.47
2022-09-16T02:27:54.931Z,2.53
2022-09-16T02:30:24.204Z,2.55
2022-09-16T02:32:58.194Z,2.50
2022-09-16T02:35:27.946Z,2.72
2022-09-16T02:37:59.433Z,3.10
2022-09-16T02:40:30.746Z,2.72
2022-09-16T02:42:59.524Z,3.00
2022-09-16T02:45:38.368Z,2.50
2022-09-16T02:48:15.834Z,2.72
2022-09-16T02:50:51.880Z,3.30
2022-09-16T02:53:28.265Z,3.60
2022-09-16T02:56:00.738Z,3.00
2022-09-16T02:58:28.720Z,2.70
2022-09-16T03:00:58.257Z,2.85
2022-09-16T03:03:27.634Z,2.75
2022-09-16T03:06:13.684Z,2.65
2022-09-16T03:08:42.954Z,2.95
2022-09-16T03:11:20.890Z,3.60
2022-09-16T03:13:57.793Z,3.40
2022-09-16T03:16:35.753Z,3.22
2022-09-16T03:19:15.182Z,3.17
2022-09-16T03:21:51.068Z,3.20
2022-09-16T03:24:28.336Z,3.22
2022-09-16T03:27:00.656Z,3.53
2022-09-16T03:29:35.785Z,3.13
2022-09-16T03:32:10.840Z,3.50
2022-09-16T03:34:44.646Z,3.38
2022-09-16T03:37:16.494Z,3.42
2022-09-16T03:39:49.568Z,3.00
2022-09-16T03:42:18.755Z,3.50
2022-09-16T03:44:46.870Z,3.45
2022-09-16T03:47:17.893Z,3.90
2022-09-16T03:49:47.194Z,3.20
2022-09-16T03:52:17.266Z,3.35
2022-09-16T03:54:45.173Z,3.35
2022-09-16T03:57:13.101Z,4.13
2022-09-16T03:59:41.116Z,3.97
2022-09-16T04:02:08.998Z,3.47
2022-09-16T04:04:36.823Z,3.75
2022-09-16T04:07:06.150Z,3.65
2022-09-16T04:09:34.028Z,3.60
2022-09-16T04:12:02.191Z,4.15
2022-09-16T04:14:30.056Z,4.20
2022-09-16T04:16:57.901Z,4.15
2022-09-16T04:19:25.826Z,4.53
2022-09-16T04:21:53.698Z,5.07
2022-09-16T04:24:22.971Z,4.50
2022-09-16T04:26:50.983Z,4.65
2022-09-16T04:29:18.835Z,4.35
2022-09-16T04:31:46.761Z,5.00
2022-09-16T04:34:14.821Z,4.45
2022-09-16T04:36:42.703Z,4.63
2022-09-16T04:39:10.578Z,4.75
2022-09-16T04:41:39.826Z,4.95
2022-09-16T04:44:07.766Z,4.45
2022-09-16T04:46:35.691Z,5.30
2022-09-16T04:49:03.623Z,6.28
2022-09-16T04:51:32.236Z,4.95
2022-09-16T04:54:01.431Z,6.18
2022-09-16T04:56:32.133Z,4.55
2022-09-16T04:59:03.187Z,4.70
2022-09-16T05:01:35.283Z,5.43
2022-09-16T05:04:05.058Z,4.53
2022-09-16T05:06:35.074Z,4.68
2022-09-16T05:09:03.641Z,4.10
2022-09-16T05:11:34.349Z,3.63
2022-09-16T05:14:06.337Z,3.75
2022-09-16T05:16:34.971Z,3.90
2022-09-16T05:19:04.835Z,3.33
2022-09-16T05:21:35.184Z,3.60
2022-09-16T05:24:05.171Z,4.25
2022-09-16T05:26:35.217Z,2.88
2022-09-16T05:29:06.931Z,4.13
2022-09-16T05:31:36.997Z,3.38
2022-09-16T05:34:06.705Z,3.40
2022-09-16T05:36:37.397Z,3.53
2022-09-16T05:39:22.222Z,2.95
2022-09-16T05:41:54.277Z,3.47
2022-09-16T05:44:24.184Z,3.10
2022-09-16T05:46:52.085Z,2.97
2022-09-16T05:49:20.903Z,3.42
2022-09-16T05:51:53.711Z,2.88
2022-09-16T05:54:25.049Z,2.95
2022-09-16T05:56:52.991Z,3.45
2022-09-16T05:59:20.908Z,2.72
2022-09-16T06:01:50.551Z,2.40
2022-09-16T06:04:18.533Z,3.28
2022-09-16T06:06:47.715Z,2.63
2022-09-16T06:09:18.500Z,2.60
2022-09-16T06:11:48.022Z,3.22
2022-09-16T06:14:17.126Z,3.42
2022-09-16T06:16:45.343Z,3.15
2022-09-16T06:19:17.112Z,3.08
2022-09-16T06:21:46.372Z,2.92
2022-09-16T06:24:15.617Z,3.58
2022-09-16T06:26:45.988Z,2.90
2022-09-16T06:29:16.615Z,2.70
2022-09-16T06:34:18.378Z,2.83
2022-09-16T06:36:46.808Z,2.70
2022-09-16T06:39:15.901Z,3.03
2022-09-16T06:41:43.975Z,3.40
2022-09-16T06:44:11.953Z,2.80
2022-09-16T06:46:39.978Z,3.00
2022-09-16T06:49:08.091Z,3.30
2022-09-16T06:51:37.361Z,3.08
2022-09-16T06:54:07.523Z,2.70
2022-09-16T06:56:39.014Z,2.58
2022-09-16T06:59:07.768Z,2.65
2022-09-16T07:01:37.378Z,2.67
2022-09-16T07:04:07.327Z,2.60
2022-09-16T07:09:24.907Z,2.75
2022-09-16T07:11:52.822Z,3.25
2022-09-16T07:14:20.748Z,3.63
2022-09-16T07:16:48.933Z,2.65
2022-09-16T07:19:16.885Z,3.08
2022-09-16T07:21:46.081Z,3.20
2022-09-16T07:24:15.484Z,2.80
2022-09-16T07:26:44.528Z,2.67
2022-09-16T07:29:13.917Z,2.90
2022-09-16T07:31:42.204Z,3.17
2022-09-16T07:34:12.188Z,2.78
2022-09-16T07:36:42.545Z,2.80
2022-09-16T07:39:13.361Z,2.45
2022-09-16T07:41:46.559Z,3.05
2022-09-16T07:44:16.998Z,2.78
2022-09-16T07:46:45.015Z,2.33
2022-09-16T07:49:15.617Z,2.10
2022-09-16T07:51:43.774Z,2.38
2022-09-16T07:54:15.214Z,2.75
2022-09-16T07:56:44.489Z,2.22
2022-09-16T07:59:17.650Z,2.08
2022-09-16T08:01:47.514Z,2.20
2022-09-16T08:04:15.604Z,2.20
2022-09-16T08:06:43.764Z,2.58
2022-09-16T08:09:37.625Z,2.38
2022-09-16T08:12:03.665Z,2.20
2022-09-16T08:14:31.712Z,1.88
2022-09-16T08:16:59.836Z,2.20
2022-09-16T08:19:30.826Z,2.05
2022-09-16T08:21:58.707Z,1.80
2022-09-16T08:24:27.935Z,1.63
2022-09-16T08:29:25.730Z,1.75
2022-09-16T08:31:53.725Z,2.03
2022-09-16T08:34:21.982Z,1.52
2022-09-16T08:36:52.365Z,2.15
2022-09-16T08:39:22.664Z,1.90
2022-09-16T08:42:07.679Z,2.00
2022-09-16T08:44:42.798Z,1.98
2022-09-16T08:47:21.181Z,1.90
2022-09-16T08:49:52.347Z,2.17
2022-09-16T08:52:29.682Z,1.92
2022-09-16T08:55:00.730Z,1.70
2022-09-16T08:57:35.223Z,1.83
2022-09-16T09:00:09.279Z,1.67
2022-09-16T09:05:18.791Z,1.90
2022-09-16T09:07:58.721Z,1.85
2022-09-16T09:10:32.615Z,1.95
2022-09-16T09:13:10.906Z,1.80
2022-09-16T09:15:44.413Z,1.98
2022-09-16T09:18:27.562Z,1.60
2022-09-16T09:21:05.909Z,2.92
2022-09-16T09:23:49.361Z,1.95
2022-09-16T09:26:22.764Z,2.00
2022-09-16T09:29:06.435Z,1.85
2022-09-16T09:31:44.813Z,2.00
2022-09-16T09:34:28.771Z,2.47
2022-09-16T09:37:14.453Z,2.00
2022-09-16T09:39:56.163Z,2.30
2022-09-16T09:42:31.619Z,1.98
2022-09-16T09:45:05.627Z,2.10
2022-09-16T09:47:39.751Z,2.00
2022-09-16T09:50:17.422Z,2.13
2022-09-16T09:52:54.744Z,2.75
2022-09-16T09:55:25.393Z,2.15
2022-09-16T09:58:15.538Z,1.80
2022-09-16T10:00:45.584Z,2.20
2022-09-16T10:03:16.528Z,2.55
2022-09-16T10:05:45.396Z,3.08
2022-09-16T10:08:24.771Z,1.65
2022-09-16T10:10:54.455Z,1.83
2022-09-16T10:13:24.234Z,2.15
2022-09-16T10:15:55.968Z,1.73
2022-09-16T10:18:29.852Z,2.50
2022-09-16T10:21:04.030Z,2.45
2022-09-16T10:23:32.270Z,2.17
2022-09-16T10:26:22.377Z,1.90
2022-09-16T10:28:59.169Z,2.03
2022-09-16T10:31:34.392Z,2.40
2022-09-16T10:34:05.426Z,2.20
2022-09-16T10:36:35.832Z,2.20
2022-09-16T10:39:05.755Z,1.95
2022-09-16T10:41:36.182Z,2.00
2022-09-16T10:44:16.613Z,2.22
2022-09-16T10:46:54.340Z,1.55
2022-09-16T10:49:27.646Z,1.92
2022-09-16T10:51:55.815Z,2.20
2022-09-16T10:54:28.253Z,3.03
2022-09-16T10:56:56.265Z,1.77
2022-09-16T10:59:24.227Z,1.92
2022-09-16T11:02:01.824Z,2.17
2022-09-16T11:04:54.752Z,1.92
2022-09-16T11:07:42.383Z,1.50
2022-09-16T11:10:23.223Z,1.77
2022-09-16T11:13:17.082Z,2.50
2022-09-16T11:15:59.801Z,2.20
2022-09-16T11:18:42.367Z,2.78
2022-09-16T11:21:21.933Z,2.90
2022-09-16T11:24:18.073Z,2.20
2022-09-16T11:26:55.613Z,2.72
2022-09-16T11:29:43.169Z,3.38
2022-09-16T11:32:20.582Z,2.60
2022-09-16T11:35:09.474Z,2.00
2022-09-16T11:37:43.951Z,2.13
2022-09-16T11:40:25.610Z,2.70
2022-09-16T11:43:00.980Z,3.83
2022-09-16T11:45:43.706Z,3.40
2022-09-16T11:48:33.793Z,3.22
2022-09-16T11:51:10.220Z,2.90
2022-09-16T11:53:58.721Z,2.53
2022-09-16T11:56:37.274Z,2.63
2022-09-16T11:59:12.083Z,2.13
2022-09-16T12:01:45.454Z,2.08
2022-09-16T12:04:21.790Z,1.70
2022-09-16T12:07:01.067Z,1.63
2022-09-16T12:09:39.171Z,1.85
2022-09-16T12:12:13.301Z,2.17
2022-09-16T12:14:44.729Z,2.13
2022-09-16T12:17:17.977Z,2.10
2022-09-16T12:19:53.079Z,1.98
2022-09-16T12:22:26.301Z,1.85
2022-09-16T12:25:03.358Z,2.13
2022-09-16T12:27:42.448Z,2.60
2022-09-16T12:30:16.576Z,2.47
2022-09-16T12:32:53.500Z,2.17
2022-09-16T12:35:25.365Z,1.80
2022-09-16T12:37:55.878Z,1.50
2022-09-16T12:40:26.876Z,1.60
2022-09-16T12:43:30.814Z,2.13
2022-09-16T12:46:28.333Z,3.67
2022-09-16T12:49:27.877Z,2.20
2022-09-16T12:52:15.604Z,2.50
2022-09-16T12:55:09.009Z,1.77
2022-09-16T12:57:47.933Z,1.83
2022-09-16T13:00:20.973Z,1.60
2022-09-16T13:02:53.165Z,2.30
2022-09-16T13:05:28.231Z,1.70
2022-09-16T13:08:01.610Z,1.67
2022-09-16T13:10:54.479Z,2.10
2022-09-16T13:13:32.266Z,1.73
2022-09-16T13:16:02.894Z,2.00
2022-09-16T13:18:43.791Z,2.78
2022-09-16T13:21:24.640Z,1.63
2022-09-16T13:24:00.120Z,1.52
2022-09-16T13:26:39.913Z,1.50
2022-09-16T13:29:26.696Z,1.98
2022-09-16T13:34:30.096Z,2.15
2022-09-16T13:36:58.460Z,2.08
2022-09-16T13:39:30.927Z,1.98
2022-09-16T13:42:11.571Z,1.80
2022-09-16T13:44:43.706Z,1.50
2022-09-16T13:47:19.458Z,2.05
2022-09-16T13:49:51.266Z,1.80
2022-09-16T13:52:22.613Z,1.33
2022-09-16T13:55:11.721Z,1.77
2022-09-16T13:57:54.320Z,2.15
2022-09-16T14:00:24.475Z,1.90
2022-09-16T14:03:17.782Z,1.52
2022-09-16T14:06:21.549Z,2.15
2022-09-16T14:08:58.863Z,1.40
2022-09-16T14:11:36.096Z,2.40
2022-09-16T14:14:29.963Z,3.67
2022-09-16T14:17:05.108Z,3.50
2022-09-16T14:22:15.235Z,4.28
2022-09-16T14:24:44.904Z,2.67
2022-09-16T14:27:21.306Z,1.60
2022-09-16T14:29:58.278Z,1.40
2022-09-16T14:32:31.586Z,1.70
2022-09-16T14:35:03.580Z,1.48
2022-09-16T14:37:33.079Z,1.70
2022-09-16T14:40:06.330Z,1.75
2022-09-16T14:42:34.455Z,1.70
2022-09-16T14:45:05.695Z,1.52
2022-09-16T14:47:53.394Z,1.80
2022-09-16T14:50:24.641Z,1.70
2022-09-16T14:52:57.924Z,1.90
2022-09-16T14:55:30.268Z,0.98
2022-09-16T14:57:58.410Z,1.58
2022-09-16T15:00:31.792Z,1.73
2022-09-16T15:03:06.095Z,1.45
2022-09-16T15:05:36.211Z,2.00
2022-09-16T15:08:14.883Z,1.80
2022-09-16T15:10:52.475Z,1.77
2022-09-16T15:13:27.774Z,1.95
2022-09-16T15:16:01.860Z,1.30
2022-09-16T15:18:33.094Z,1.50
2022-09-16T15:21:06.683Z,2.50
2022-09-16T15:23:35.945Z,2.00
2022-09-16T15:26:13.691Z,2.33
2022-09-16T15:28:52.342Z,1.95
2022-09-16T15:31:30.280Z,1.90
2022-09-16T15:33:59.273Z,2.00
2022-09-16T15:36:41.786Z,2.05
2022-09-16T15:39:24.342Z,2.58
2022-09-16T15:42:05.883Z,2.17
2022-09-16T15:44:37.368Z,2.80
2022-09-16T15:47:07.098Z,2.30
2022-09-16T15:49:40.203Z,2.13
2022-09-16T15:52:11.572Z,3.00
2022-09-16T15:54:49.543Z,2.65
2022-09-16T15:57:28.899Z,2.13
2022-09-16T16:00:09.816Z,2.97
2022-09-16T16:02:45.819Z,2.30
2022-09-16T16:07:46.331Z,3.25
2022-09-16T16:10:20.745Z,2.80
2022-09-16T16:12:50.245Z,2.90
2022-09-16T16:15:21.651Z,2.60
2022-09-16T16:17:51.357Z,2.67
2022-09-16T16:20:20.136Z,3.33
2022-09-16T16:22:48.805Z,3.33
2022-09-16T16:25:17.475Z,3.05
2022-09-16T16:27:45.390Z,3.80
2022-09-16T16:30:13.860Z,2.92
2022-09-16T16:32:41.999Z,2.25
2022-09-16T16:35:11.538Z,2.33
2022-09-16T16:37:47.613Z,2.90
2022-09-16T16:40:16.947Z,1.88
2022-09-16T16:42:44.920Z,2.30
2022-09-16T16:45:13.169Z,3.10
2022-09-16T16:47:41.340Z,2.60
2022-09-16T16:50:11.531Z,1.88
2022-09-16T16:52:39.948Z,2.17
2022-09-16T16:55:08.527Z,2.13
2022-09-16T16:57:36.560Z,2.50
2022-09-16T17:00:05.094Z,3.17
2022-09-16T17:02:33.117Z,2.83
2022-09-16T17:05:01.135Z,2.50
2022-09-16T17:07:30.365Z,2.88
2022-09-16T17:09:58.359Z,3.60
2022-09-16T17:12:26.540Z,2.50
2022-09-16T17:14:54.622Z,2.97
2022-09-16T17:17:25.253Z,2.35
2022-09-16T17:19:55.678Z,2.00
2022-09-16T17:22:25.601Z,3.47
2022-09-16T17:24:54.850Z,2.20
2022-09-16T17:27:24.652Z,2.70
2022-09-16T17:29:52.555Z,2.70
2022-09-16T17:32:20.514Z,2.38
2022-09-16T17:34:48.355Z,2.40
2022-09-16T17:37:19.659Z,2.53
2022-09-16T17:39:48.536Z,1.95
2022-09-16T17:42:17.991Z,2.42
2022-09-16T17:44:45.833Z,2.63
2022-09-16T17:47:13.719Z,2.78
2022-09-16T17:49:41.677Z,2.08
2022-09-16T17:52:09.575Z,2.80
2022-09-16T17:54:37.467Z,2.58
2022-09-16T17:57:05.500Z,3.08
2022-09-16T17:59:34.705Z,1.85
2022-09-16T18:02:02.736Z,1.88
2022-09-16T18:04:31.092Z,2.72
2022-09-16T18:07:01.169Z,2.08
2022-09-16T18:09:29.068Z,1.95
2022-09-16T18:11:58.333Z,1.83
2022-09-16T18:14:26.245Z,2.67
2022-09-16T18:16:55.496Z,1.80
2022-09-16T18:19:25.899Z,2.25
2022-09-16T18:21:53.772Z,3.15
2022-09-16T18:24:23.772Z,2.63
2022-09-16T18:26:52.231Z,2.42
2022-09-16T18:29:20.266Z,1.85
2022-09-16T18:31:49.605Z,2.50
2022-09-16T18:34:18.892Z,2.33
2022-09-16T18:36:46.819Z,2.38
2022-09-16T18:39:16.891Z,2.53
2022-09-16T18:41:46.097Z,2.40
2022-09-16T18:44:16.442Z,2.80
2022-09-16T18:46:44.889Z,2.83
2022-09-16T18:49:15.065Z,3.03
2022-09-16T18:51:50.909Z,2.30
2022-09-16T18:54:24.437Z,2.15
2022-09-16T18:56:56.405Z,2.00
2022-09-16T18:59:28.668Z,2.42
2022-09-16T19:01:59.218Z,2.30
2022-09-16T19:04:30.542Z,2.10
2022-09-16T19:07:07.118Z,3.15
2022-09-16T19:09:36.774Z,2.95
2022-09-16T19:12:05.256Z,2.22
2022-09-16T19:14:33.282Z,2.30
2022-09-16T19:17:01.457Z,2.53
2022-09-16T19:19:29.514Z,2.95
2022-09-16T19:21:58.902Z,3.53
2022-09-16T19:24:27.925Z,2.58
2022-09-16T19:26:56.814Z,2.22
2022-09-16T19:29:24.897Z,2.30
2022-09-16T19:31:54.253Z,3.60
2022-09-16T19:34:23.083Z,2.90
2022-09-16T19:36:51.615Z,2.60
2022-09-16T19:39:23.912Z,2.30
2022-09-16T19:41:52.181Z,3.05
2022-09-16T19:44:20.260Z,3.40
2022-09-16T19:46:49.237Z,2.53
2022-09-16T19:49:19.770Z,4.40
2022-09-16T19:51:48.235Z,3.42
2022-09-16T19:54:16.539Z,7.40
2022-09-16T19:56:50.354Z,4.53
2022-09-16T19:59:19.749Z,5.10
2022-09-16T20:01:48.191Z,3.88
2022-09-16T20:04:19.445Z,4.10
2022-09-16T20:06:47.407Z,2.92
2022-09-16T20:09:15.315Z,3.15
2022-09-16T20:11:46.512Z,2.58
2022-09-16T20:14:18.864Z,2.47
2022-09-16T20:16:47.443Z,3.15
2022-09-16T20:19:18.103Z,3.30
2022-09-16T20:21:47.262Z,3.45
2022-09-16T20:24:18.110Z,3.13
2022-09-16T20:26:47.465Z,2.70
2022-09-16T20:29:17.177Z,3.58
2022-09-16T20:31:45.930Z,2.70
2022-09-16T20:34:16.258Z,3.22
2022-09-16T20:36:45.750Z,2.80
2022-09-16T20:39:14.343Z,3.03
2022-09-16T20:41:43.373Z,3.05
2022-09-16T20:44:15.540Z,3.00
2022-09-16T20:46:43.810Z,3.70
2022-09-16T20:49:15.129Z,4.15
2022-09-16T20:51:45.540Z,3.50
2022-09-16T20:54:15.010Z,3.60
2022-09-16T20:56:45.571Z,3.38
2022-09-16T20:59:16.144Z,3.28
2022-09-16T21:01:44.490Z,3.00
2022-09-16T21:04:16.058Z,2.80
2022-09-16T21:06:45.486Z,2.53
2022-09-16T21:09:15.070Z,2.72
2022-09-16T21:11:45.876Z,2.77
2022-09-16T21:14:16.848Z,2.80
2022-09-16T21:16:46.381Z,2.85
2022-09-16T21:19:15.188Z,2.67
2022-09-16T21:21:45.767Z,2.88
2022-09-16T21:24:14.201Z,3.28
2022-09-16T21:26:43.963Z,2.65
2022-09-16T21:29:18.756Z,2.72
2022-09-16T21:31:46.794Z,2.95
2022-09-16T21:34:16.847Z,3.00
2022-09-16T21:36:45.265Z,3.22
2022-09-16T21:39:13.912Z,3.08
2022-09-16T21:41:44.357Z,3.20
2022-09-16T21:44:13.078Z,2.90
2022-09-16T21:46:45.207Z,2.63
2022-09-16T21:49:24.145Z,2.90
2022-09-16T21:51:53.222Z,2.83
2022-09-16T21:54:21.287Z,2.80
2022-09-16T21:56:52.282Z,3.03
2022-09-16T21:59:20.582Z,2.97
2022-09-16T22:01:50.562Z,3.00
2022-09-16T22:04:21.168Z,3.30
2022-09-16T22:06:49.881Z,3.22
2022-09-16T22:09:17.885Z,2.88
2022-09-16T22:11:46.105Z,3.08
2022-09-16T22:14:14.030Z,2.50
2022-09-16T22:16:41.989Z,2.60
2022-09-16T22:19:13.105Z,2.80
2022-09-16T22:21:42.991Z,3.35
2022-09-16T22:24:11.572Z,3.45
2022-09-16T22:26:40.374Z,3.33
2022-09-16T22:29:09.354Z,2.88
2022-09-16T22:31:38.775Z,2.67
2022-09-16T22:34:06.827Z,3.35
2022-09-16T22:36:37.811Z,2.75
2022-09-16T22:39:12.254Z,3.83
2022-09-16T22:41:42.725Z,4.85
2022-09-16T22:44:11.208Z,6.63
2022-09-16T22:46:42.256Z,6.45
2022-09-16T22:49:10.706Z,6.70
2022-09-16T22:51:40.330Z,4.88
2022-09-16T22:54:09.057Z,5.20
2022-09-16T22:56:37.466Z,3.70
2022-09-16T22:59:08.206Z,3.83
2022-09-16T23:01:39.023Z,4.00
2022-09-16T23:04:08.498Z,4.75
2022-09-16T23:06:37.893Z,3.25
2022-09-16T23:09:08.447Z,4.18
2022-09-16T23:11:37.108Z,3.50
2022-09-16T23:14:06.194Z,4.05
2022-09-16T23:16:38.334Z,3.65
2022-09-16T23:19:08.435Z,3.67
2022-09-16T23:21:39.494Z,4.70
2022-09-16T23:24:12.249Z,4.63
2022-09-16T23:26:40.188Z,4.28
2022-09-16T23:29:10.390Z,4.55
2022-09-16T23:31:40.818Z,5.18
2022-09-16T23:34:09.050Z,6.68
2022-09-16T23:36:37.839Z,6.38
2022-09-16T23:39:10.368Z,7.13
2022-09-16T23:41:38.401Z,7.43
2022-09-16T23:44:06.690Z,4.80
2022-09-16T23:46:34.691Z,4.47
2022-09-16T23:49:02.882Z,4.15
2022-09-16T23:51:32.237Z,3.92
2022-09-16T23:54:01.048Z,5.72
2022-09-16T23:56:30.369Z,6.10
2022-09-16T23:59:01.598Z,4.88
